createdAt,value
2022-11-15T00:05:26.081Z,19.37
2022-11-15T00:11:07.087Z,20.23
2022-11-15T00:16:48.395Z,20.17
2022-11-15T00:22:34.155Z,18.97
2022-11-15T00:28:15.065Z,19.27
2022-11-15T00:33:56.012Z,19.67
2022-11-15T00:39:36.802Z,19.70
2022-11-15T00:45:17.821Z,18.87
2022-11-15T00:50:59.094Z,20.57
2022-11-15T00:56:40.098Z,19.87
2022-11-15T01:02:21.422Z,18.03
2022-11-15T01:08:01.840Z,19.53
2022-11-15T01:13:42.528Z,19.97
2022-11-15T01:19:23.449Z,18.70
2022-11-15T01:25:04.895Z,18.13
2022-11-15T01:30:46.297Z,18.90
2022-11-15T01:36:26.953Z,18.80
2022-11-15T01:42:13.875Z,17.57
2022-11-15T01:47:55.925Z,18.83
2022-11-15T01:53:39.346Z,18.50
2022-11-15T01:59:20.850Z,19.10
2022-11-15T02:05:01.297Z,18.23
2022-11-15T02:10:41.776Z,18.33
2022-11-15T02:16:36.693Z,18.10
2022-11-15T02:22:48.442Z,18.47
2022-11-15T02:28:31.934Z,18.43
2022-11-15T02:34:40.758Z,19.57
2022-11-15T02:40:27.855Z,18.70
2022-11-15T02:46:15.756Z,17.27
2022-11-15T02:51:57.203Z,17.17
2022-11-15T02:58:08.963Z,16.87
2022-11-15T03:03:49.697Z,17.67
2022-11-15T03:09:48.267Z,16.37
2022-11-15T03:15:38.142Z,16.90
2022-11-15T03:21:21.049Z,14.97
2022-11-15T03:27:04.185Z,16.33
2022-11-15T03:32:56.966Z,16.33
2022-11-15T03:38:39.806Z,15.37
2022-11-15T03:44:41.418Z,16.67
2022-11-15T03:50:23.985Z,16.80
2022-11-15T03:56:05.057Z,17.23
2022-11-15T04:01:45.804Z,16.07
2022-11-15T04:07:27.355Z,17.77
2022-11-15T04:13:08.320Z,14.70
2022-11-15T04:19:08.942Z,17.00
2022-11-15T04:24:49.673Z,16.17
2022-11-15T04:30:30.438Z,15.73
2022-11-15T04:36:30.019Z,15.47
2022-11-15T04:42:12.271Z,14.80
2022-11-15T04:47:53.374Z,15.00
2022-11-15T04:53:34.681Z,15.70
2022-11-15T04:59:15.708Z,15.37
2022-11-15T05:04:56.792Z,14.87
2022-11-15T05:10:37.827Z,14.30
2022-11-15T05:16:18.809Z,14.73
2022-11-15T05:21:59.669Z,16.07
2022-11-15T05:27:40.425Z,15.30
2022-11-15T05:33:21.301Z,16.43
2022-11-15T05:39:03.000Z,14.77
2022-11-15T05:44:48.991Z,15.00
2022-11-15T05:50:30.635Z,15.20
2022-11-15T05:56:12.128Z,15.70
2022-11-15T06:01:53.035Z,15.43
2022-11-15T06:07:34.395Z,15.10
2022-11-15T06:13:15.548Z,14.83
2022-11-15T06:18:56.244Z,14.67
2022-11-15T06:24:36.933Z,15.47
2022-11-15T06:30:17.704Z,15.33
2022-11-15T06:36:02.810Z,14.73
2022-11-15T06:41:43.880Z,14.83
2022-11-15T06:47:24.991Z,24.73
2022-11-15T06:53:05.773Z,17.80
2022-11-15T06:58:46.754Z,19.00
2022-11-15T07:04:27.601Z,16.43
2022-11-15T07:10:09.215Z,15.63
2022-11-15T07:15:49.794Z,16.03
2022-11-15T07:21:30.864Z,16.10
2022-11-15T07:27:11.744Z,15.60
2022-11-15T07:32:57.453Z,16.37
2022-11-15T07:38:42.779Z,15.23
2022-11-15T07:44:24.170Z,14.80
2022-11-15T07:50:05.345Z,16.67
2022-11-15T07:55:45.942Z,16.50
2022-11-15T08:01:28.339Z,16.00
2022-11-15T08:07:09.694Z,17.83
2022-11-15T08:13:09.141Z,16.03
2022-11-15T08:18:50.559Z,17.27
2022-11-15T08:24:31.678Z,17.13
2022-11-15T08:30:13.422Z,16.33
2022-11-15T08:35:57.919Z,17.27
2022-11-15T08:41:39.674Z,17.73
2022-11-15T08:47:24.570Z,18.17
2022-11-15T08:53:07.765Z,18.53
2022-11-15T08:58:48.786Z,18.00
2022-11-15T09:04:30.357Z,18.80
2022-11-15T09:10:11.448Z,18.93
2022-11-15T09:15:52.340Z,19.03
2022-11-15T09:21:33.618Z,19.67
2022-11-15T09:27:14.854Z,19.97
2022-11-15T09:32:55.340Z,20.63
2022-11-15T09:38:36.727Z,20.67
2022-11-15T09:44:52.882Z,19.63
2022-11-15T09:50:54.862Z,21.23
2022-11-15T09:56:30.506Z,19.47
2022-11-15T10:02:13.433Z,20.30
2022-11-15T10:08:00.061Z,19.20
2022-11-15T10:13:33.147Z,35.53
2022-11-15T10:19:04.630Z,21.37
2022-11-15T10:24:32.284Z,20.33
2022-11-15T10:29:55.054Z,20.83
2022-11-15T10:35:21.946Z,19.60
2022-11-15T10:40:45.927Z,17.17
2022-11-15T10:46:45.591Z,15.30
2022-11-15T10:52:21.503Z,15.23
2022-11-15T10:57:51.611Z,14.93
2022-11-15T11:03:39.374Z,14.73
2022-11-15T11:09:04.812Z,14.30
2022-11-15T11:14:32.365Z,15.27
2022-11-15T11:20:20.986Z,14.47
2022-11-15T11:26:00.756Z,14.07
2022-11-15T11:31:52.375Z,12.70
2022-11-15T11:37:36.705Z,12.33
2022-11-15T11:43:26.673Z,13.70
2022-11-15T11:48:57.938Z,13.87
2022-11-15T11:54:38.646Z,12.67
2022-11-15T12:00:21.986Z,13.70
2022-11-15T12:05:49.298Z,12.50
2022-11-15T12:11:21.438Z,12.93
2022-11-15T12:16:43.645Z,12.07
2022-11-15T12:22:23.026Z,11.93
2022-11-15T12:27:56.670Z,10.90
2022-11-15T12:33:51.851Z,10.60
2022-11-15T12:39:16.501Z,11.87
2022-11-15T12:44:39.319Z,11.10
2022-11-15T12:50:01.496Z,10.30
2022-11-15T12:55:33.693Z,11.47
2022-11-15T13:00:56.256Z,11.83
2022-11-15T13:07:08.595Z,11.10
2022-11-15T13:12:31.197Z,9.77
2022-11-15T13:17:56.178Z,10.67
2022-11-15T13:23:18.481Z,10.67
2022-11-15T13:28:46.463Z,9.87
2022-11-15T13:34:53.318Z,11.00
2022-11-15T13:40:36.897Z,11.13
2022-11-15T13:46:19.462Z,10.53
2022-11-15T13:51:52.555Z,10.37
2022-11-15T13:57:25.683Z,9.90
2022-11-15T14:02:48.184Z,11.63
2022-11-15T14:08:25.425Z,11.17
2022-11-15T14:14:09.183Z,11.07
2022-11-15T14:19:32.908Z,9.33
2022-11-15T14:25:19.957Z,10.47
2022-11-15T14:30:44.482Z,10.20
2022-11-15T14:36:11.948Z,9.50
2022-11-15T14:41:40.346Z,9.37
2022-11-15T14:47:02.597Z,10.30
2022-11-15T14:52:36.654Z,12.03
2022-11-15T14:58:00.969Z,13.20
2022-11-15T15:03:23.286Z,12.57
2022-11-15T15:08:47.348Z,13.10
2022-11-15T15:14:09.969Z,14.87
2022-11-15T15:19:32.170Z,16.87
2022-11-15T15:24:54.534Z,18.83
2022-11-15T15:30:17.119Z,20.40
2022-11-15T15:35:39.337Z,23.13
2022-11-15T15:41:03.958Z,21.03
2022-11-15T15:46:26.406Z,20.53
2022-11-15T15:51:48.887Z,21.17
2022-11-15T15:57:13.808Z,21.67
2022-11-15T16:02:40.289Z,22.10
2022-11-15T16:08:03.070Z,21.03
2022-11-15T16:13:25.541Z,23.27
2022-11-15T16:18:47.684Z,23.77
2022-11-15T16:24:10.334Z,24.20
2022-11-15T16:29:32.438Z,23.70
2022-11-15T16:34:57.319Z,24.00
2022-11-15T16:40:31.388Z,23.97
2022-11-15T16:45:53.441Z,25.37
2022-11-15T16:51:16.744Z,25.10
2022-11-15T16:56:39.615Z,24.60
2022-11-15T17:02:02.040Z,22.60
2022-11-15T17:07:25.328Z,25.13
2022-11-15T17:12:47.632Z,24.87
2022-11-15T17:18:13.131Z,23.53
2022-11-15T17:23:35.659Z,23.47
2022-11-15T17:28:58.061Z,23.43
2022-11-15T17:34:20.490Z,23.60
2022-11-15T17:39:42.730Z,24.37
2022-11-15T17:45:09.857Z,25.07
2022-11-15T17:50:32.804Z,28.47
2022-11-15T17:55:56.296Z,25.00
2022-11-15T18:01:24.536Z,26.03
2022-11-15T18:06:47.518Z,25.57
2022-11-15T18:12:11.321Z,24.47
2022-11-15T18:17:33.725Z,24.13
2022-11-15T18:22:56.538Z,26.60
2022-11-15T18:28:18.784Z,31.57
2022-11-15T18:33:41.609Z,24.33
2022-11-15T18:39:04.962Z,23.67
2022-11-15T18:44:30.142Z,24.87
2022-11-15T18:49:52.235Z,24.37
2022-11-15T18:55:14.830Z,21.73
2022-11-15T19:00:37.154Z,20.47
2022-11-15T19:06:11.188Z,21.73
2022-11-15T19:11:36.015Z,19.87
2022-11-15T19:16:58.307Z,18.50
2022-11-15T19:22:20.888Z,18.83
2022-11-15T19:27:43.533Z,19.13
2022-11-15T19:33:05.787Z,19.03
2022-11-15T19:38:30.511Z,19.23
2022-11-15T19:43:55.781Z,18.27
2022-11-15T19:49:18.331Z,16.70
2022-11-15T19:54:40.914Z,17.47
2022-11-15T20:00:07.525Z,15.43
2022-11-15T20:05:30.403Z,17.13
2022-11-15T20:10:55.287Z,17.57
2022-11-15T20:16:22.673Z,18.33
2022-11-15T20:21:45.112Z,17.27
2022-11-15T20:27:08.699Z,16.67
2022-11-15T20:32:31.715Z,16.87
2022-11-15T20:37:54.239Z,17.00
2022-11-15T20:43:19.365Z,16.20
2022-11-15T20:48:42.094Z,17.43
2022-11-15T20:54:04.328Z,18.37
2022-11-15T20:59:26.519Z,17.73
2022-11-15T21:04:48.596Z,17.93
2022-11-15T21:10:29.835Z,17.97
2022-11-15T21:15:56.902Z,18.87
2022-11-15T21:21:19.027Z,19.03
2022-11-15T21:26:41.513Z,17.83
2022-11-15T21:32:07.104Z,19.20
2022-11-15T21:37:29.670Z,18.70
2022-11-15T21:42:52.103Z,18.57
2022-11-15T21:48:14.442Z,18.23
2022-11-15T21:53:37.463Z,19.13
2022-11-15T21:59:00.481Z,19.20
2022-11-15T22:04:24.221Z,19.50
2022-11-15T22:09:47.191Z,19.27
2022-11-15T22:15:09.898Z,19.73
2022-11-15T22:20:47.245Z,19.37
2022-11-15T22:26:14.027Z,18.77
2022-11-15T22:31:36.203Z,17.63
2022-11-15T22:37:19.818Z,18.07
2022-11-15T22:42:40.594Z,18.27
2022-11-15T22:48:03.080Z,18.30
2022-11-15T22:53:25.788Z,18.50
2022-11-15T22:58:48.155Z,17.13
2022-11-15T23:04:10.532Z,18.30
2022-11-15T23:31:21.773Z,16.67
2022-11-15T23:36:44.281Z,17.90
2022-11-15T23:42:09.384Z,17.23
2022-11-15T23:47:32.144Z,17.57
2022-11-15T23:52:54.741Z,17.10
2022-11-15T23:58:16.923Z,16.80
